createdAt,value
2023-03-05T02:25:54.484Z,96997.23
2023-03-05T02:28:24.166Z,96999.25
2023-03-05T02:30:54.343Z,96997.88
2023-03-05T02:33:27.589Z,96997.99
2023-03-05T02:35:59.314Z,96998.75
2023-03-05T02:38:53.019Z,96997.94
2023-03-05T02:41:38.243Z,97003.17
2023-03-05T02:44:28.881Z,97003.91
2023-03-05T02:47:09.482Z,97009.45
2023-03-05T02:49:44.221Z,97013.80
2023-03-05T02:52:31.722Z,97009.66
2023-03-05T02:55:00.893Z,97009.53
2023-03-05T02:57:31.164Z,97007.98
2023-03-05T03:00:00.478Z,97011.80
2023-03-05T03:02:29.554Z,97006.80
2023-03-05T03:04:59.248Z,97005.46
2023-03-05T03:07:28.313Z,97001.34
2023-03-05T03:09:57.423Z,97001.88
2023-03-05T03:12:26.522Z,97002.75
2023-03-05T03:14:55.706Z,97000.91
2023-03-05T03:17:24.794Z,97000.64
2023-03-05T03:19:53.621Z,96999.81
2023-03-05T03:22:23.426Z,96997.59
2023-03-05T03:24:52.426Z,96994.05
2023-03-05T03:27:21.393Z,96999.22
2023-03-05T03:29:50.603Z,96996.07
2023-03-05T03:32:19.381Z,96993.29
2023-03-05T03:34:48.350Z,96998.11
2023-03-05T03:37:18.010Z,97001.14
2023-03-05T03:39:47.915Z,97006.04
2023-03-05T03:42:18.064Z,97010.23
2023-03-05T03:44:48.801Z,97012.48
2023-03-05T03:47:18.175Z,97008.72
2023-03-05T03:49:47.140Z,97005.38
2023-03-05T03:52:15.980Z,97012.40
2023-03-05T03:54:44.967Z,97014.08
2023-03-05T03:57:14.413Z,97019.61
2023-03-05T03:59:45.565Z,97010.12
2023-03-05T04:02:15.345Z,97008.30
2023-03-05T04:04:43.949Z,97011.34
2023-03-05T08:04:35.244Z,97083.48
2023-03-05T08:07:04.105Z,97083.14
2023-03-05T08:09:32.190Z,97079.32
2023-03-05T08:12:02.131Z,97076.63
2023-03-05T08:14:31.032Z,97079.73
2023-03-05T08:16:59.779Z,97078.91
2023-03-05T08:19:28.978Z,97077.02
2023-03-05T08:21:57.924Z,97077.24
2023-03-05T08:24:29.873Z,97072.00
2023-03-05T08:27:18.860Z,97070.32
2023-03-05T08:29:48.113Z,97065.77
2023-03-05T08:32:18.208Z,97064.02
2023-03-05T08:35:17.790Z,97063.76
2023-03-05T08:38:06.789Z,97059.52
2023-03-05T08:40:54.851Z,97064.09
2023-03-05T08:43:23.679Z,97061.14
2023-03-05T08:45:54.119Z,97061.39
2023-03-05T08:48:38.758Z,97057.27
2023-03-05T08:51:09.280Z,97051.92
2023-03-05T08:53:39.267Z,97048.66
2023-03-05T08:56:09.466Z,97042.13
2023-03-05T08:58:38.257Z,97045.30
2023-03-05T09:01:06.785Z,97042.52
2023-03-05T09:03:35.427Z,97045.75
2023-03-05T09:06:14.855Z,97045.39
2023-03-05T09:08:43.871Z,97040.95
2023-03-05T09:11:17.486Z,97043.81
2023-03-05T09:13:46.863Z,97039.59
2023-03-05T09:16:16.560Z,97039.18
2023-03-05T09:18:44.959Z,97034.11
2023-03-05T09:21:17.741Z,97033.38
2023-03-05T09:23:47.437Z,97034.31
2023-03-05T09:26:21.930Z,97029.34
2023-03-05T09:28:50.644Z,97031.98
2023-03-05T09:31:19.980Z,97025.05
2023-03-05T09:33:49.239Z,97034.66
2023-03-05T09:36:22.678Z,97033.87
2023-03-05T09:38:50.618Z,97031.98
2023-03-05T09:41:30.001Z,97030.10
2023-03-05T09:44:16.350Z,97028.92
2023-03-05T09:47:06.842Z,97028.13
2023-03-05T09:49:43.796Z,97025.23
2023-03-05T09:52:18.309Z,97021.91
2023-03-05T09:54:52.841Z,97025.45
2023-03-05T09:57:39.240Z,97022.89
2023-03-05T10:00:17.526Z,97023.30
2023-03-05T10:02:59.082Z,97021.83
2023-03-05T10:05:36.831Z,97021.15
2023-03-05T10:08:06.566Z,97015.50
2023-03-05T10:10:41.170Z,97014.05
2023-03-05T10:13:22.987Z,97010.38
2023-03-05T10:16:06.572Z,97006.75
2023-03-05T10:18:55.565Z,97002.47
2023-03-05T10:21:45.156Z,97003.68
2023-03-05T10:24:20.137Z,97001.90
2023-03-05T10:27:01.386Z,96994.50
2023-03-05T10:29:42.676Z,96996.63
2023-03-05T10:32:34.640Z,96991.88
2023-03-05T10:35:24.422Z,96987.49
2023-03-05T10:38:12.522Z,96987.98
2023-03-05T10:40:43.244Z,96987.52
2023-03-05T10:43:13.253Z,96981.23
2023-03-05T10:45:41.183Z,96979.58
2023-03-05T10:48:27.642Z,96980.05
2023-03-05T10:51:19.817Z,96979.44
2023-03-05T10:54:12.442Z,96976.52
2023-03-05T10:56:41.115Z,96973.61
2023-03-05T10:59:13.101Z,96969.08
2023-03-05T11:01:42.982Z,96962.70
2023-03-05T11:04:26.972Z,96959.23
2023-03-05T11:06:56.014Z,96955.04
2023-03-05T11:09:29.922Z,96952.92
2023-03-05T11:12:08.817Z,96946.45
2023-03-05T11:14:44.272Z,96943.48
2023-03-05T11:17:29.964Z,96940.23
2023-03-05T11:20:18.541Z,96931.42
2023-03-05T11:23:08.344Z,96927.33
2023-03-05T11:25:51.035Z,96923.48
2023-03-05T11:28:32.022Z,96917.77
2023-03-05T11:31:26.812Z,96910.32
2023-03-05T11:34:25.370Z,96903.69
2023-03-05T11:36:53.773Z,96898.52
2023-03-05T11:39:23.859Z,96895.65
2023-03-05T11:41:54.115Z,96898.58
2023-03-05T11:44:25.550Z,96892.25
2023-03-05T11:47:01.102Z,96890.90
2023-03-05T11:49:31.428Z,96891.44
2023-03-05T11:52:08.669Z,96894.09
2023-03-05T11:54:42.633Z,96890.75
2023-03-05T11:57:21.120Z,96887.57
2023-03-05T12:00:29.026Z,96885.74
2023-03-05T12:02:59.083Z,96878.55
2023-03-05T12:05:29.764Z,96879.23
2023-03-05T12:08:00.688Z,96873.52
2023-03-05T12:10:30.344Z,96869.70
2023-03-05T12:13:17.429Z,96868.95
2023-03-05T12:16:00.879Z,96870.84
2023-03-05T12:18:40.734Z,96866.69
2023-03-05T12:21:17.272Z,96860.30
2023-03-05T12:23:56.423Z,96854.94
2023-03-05T12:26:44.510Z,96844.91
2023-03-05T12:29:51.496Z,96842.17
2023-03-05T12:32:22.468Z,96847.00
2023-03-05T12:35:00.745Z,96847.86
2023-03-05T12:37:29.565Z,96843.83
2023-03-05T12:40:04.704Z,96844.40
2023-03-05T12:42:33.875Z,96843.79
2023-03-05T12:45:17.068Z,96842.99
2023-03-05T12:47:55.147Z,96843.33
2023-03-05T12:50:33.880Z,96843.38
2023-03-05T12:53:16.745Z,96843.56
2023-03-05T12:55:48.377Z,96846.54
2023-03-05T12:58:32.373Z,96842.70
2023-03-05T13:01:08.229Z,96839.58
2023-03-05T13:03:40.688Z,96839.69
2023-03-05T13:06:23.327Z,96837.53
2023-03-05T13:09:15.906Z,96835.39
2023-03-05T13:11:52.373Z,96834.72
2023-03-05T13:14:27.168Z,96832.12
2023-03-05T13:16:55.851Z,96827.43
2023-03-05T13:19:24.674Z,96829.42
2023-03-05T13:22:04.285Z,96826.42
2023-03-05T13:24:32.420Z,96827.05
2023-03-05T13:27:02.657Z,96824.98
2023-03-05T13:29:32.421Z,96831.73
2023-03-05T13:32:03.807Z,96832.10
2023-03-05T13:34:46.601Z,96834.22
2023-03-05T13:37:18.597Z,96838.02
2023-03-05T13:39:52.268Z,96835.64
2023-03-05T13:42:26.277Z,96838.13
2023-03-05T13:45:01.866Z,96840.54
2023-03-05T13:47:32.673Z,96845.38
2023-03-05T13:50:07.989Z,96842.36
2023-03-05T13:52:40.551Z,96843.70
2023-03-05T13:55:13.638Z,96842.83
2023-03-05T13:57:43.013Z,96842.27
2023-03-05T14:00:29.830Z,96839.19
2023-03-05T14:03:01.649Z,96843.75
2023-03-05T14:05:31.723Z,96840.21
2023-03-05T14:08:01.010Z,96843.88
2023-03-05T14:10:29.143Z,96841.08
2023-03-05T14:13:02.794Z,96839.30
2023-03-05T14:15:34.668Z,96834.09
2023-03-05T14:18:14.747Z,96836.55
2023-03-05T14:21:06.279Z,96836.20
2023-03-05T14:23:49.463Z,96835.66
2023-03-05T14:26:32.723Z,96837.25
2023-03-05T14:29:14.547Z,96838.29
2023-03-05T14:31:52.408Z,96835.69
2023-03-05T14:34:25.981Z,96838.24
2023-03-05T14:36:59.084Z,96837.94
2023-03-05T14:39:33.107Z,96835.09
2023-03-05T14:42:35.248Z,96835.86
2023-03-05T14:45:31.242Z,96833.27
2023-03-05T14:48:00.849Z,96831.77
2023-03-05T14:50:43.246Z,96831.89
2023-03-05T14:53:26.259Z,96833.73
2023-03-05T14:55:57.017Z,96833.70
2023-03-05T14:58:32.473Z,96828.73
2023-03-05T15:01:03.448Z,96831.25
2023-03-05T15:03:35.387Z,96830.10
2023-03-05T15:06:06.318Z,96833.39
2023-03-05T15:08:35.999Z,96833.46
2023-03-05T15:11:04.350Z,96837.80
2023-03-05T15:13:33.471Z,96837.50
2023-03-05T15:16:02.220Z,96842.71
2023-03-05T15:18:30.910Z,96845.67
2023-03-05T15:20:59.489Z,96844.04
2023-03-05T15:23:29.802Z,96841.92
2023-03-05T15:25:58.027Z,96842.50
2023-03-05T15:28:30.227Z,96840.71
2023-03-05T15:31:00.408Z,96839.97
2023-03-05T15:33:28.950Z,96842.23
2023-03-05T15:35:57.954Z,96840.08
2023-03-05T15:38:26.105Z,96840.58
2023-03-05T15:40:56.268Z,96844.66
2023-03-05T15:43:25.276Z,96843.41
2023-03-05T15:45:54.561Z,96843.55
2023-03-05T15:48:22.680Z,96846.84
2023-03-05T15:50:50.781Z,96840.77
2023-03-05T15:53:20.840Z,96844.11
2023-03-05T15:55:50.057Z,96841.45
2023-03-05T15:58:18.728Z,96841.96
2023-03-05T16:00:47.743Z,96844.79
2023-03-05T16:03:15.963Z,96845.23
2023-03-05T16:05:44.291Z,96844.62
2023-03-05T16:08:13.183Z,96846.24
2023-03-05T16:10:44.579Z,96845.90
2023-03-05T16:13:15.611Z,96848.57
2023-03-05T16:15:43.914Z,96849.34
2023-03-05T16:18:15.559Z,96850.16
2023-03-05T16:20:44.240Z,96852.98
2023-03-05T16:23:13.252Z,96851.60
2023-03-05T16:25:41.951Z,96855.70
2023-03-05T16:28:10.976Z,96853.67
2023-03-05T16:30:43.055Z,96855.45
2023-03-05T16:33:11.928Z,96853.02
2023-03-05T16:35:40.707Z,96854.30
2023-03-05T16:38:08.763Z,96857.45
2023-03-05T16:41:05.647Z,96856.61
2023-03-05T16:43:27.130Z,96857.14
2023-03-05T16:45:55.337Z,96860.90
2023-03-05T16:48:23.385Z,96863.65
2023-03-05T16:50:52.170Z,96866.90
2023-03-05T16:53:21.343Z,96870.83
2023-03-05T16:55:49.539Z,96870.25
2023-03-05T16:58:17.516Z,96875.17
2023-03-05T17:00:46.048Z,96878.04
2023-03-05T17:03:14.867Z,96876.41
2023-03-05T17:05:43.122Z,96876.38
2023-03-05T17:08:12.317Z,96874.92
2023-03-05T17:10:45.018Z,96880.40
2023-03-05T17:13:13.787Z,96881.02
2023-03-05T17:18:26.819Z,96890.21
2023-03-05T17:20:55.922Z,96893.02
2023-03-05T17:23:25.216Z,96893.16
2023-03-05T17:25:54.291Z,96893.18
2023-03-05T17:28:23.394Z,96897.20
2023-03-05T17:30:52.610Z,96899.73
2023-03-05T17:33:21.419Z,96902.96
2023-03-05T17:35:52.250Z,96896.54
2023-03-05T17:38:22.372Z,96901.66
2023-03-05T17:40:50.779Z,96906.22
2023-03-05T17:43:19.218Z,96902.63
2023-03-05T17:45:49.009Z,96905.73
2023-03-05T17:48:19.035Z,96907.59
2023-03-05T17:50:48.299Z,96903.64
2023-03-05T17:53:16.630Z,96905.00
2023-03-05T17:55:48.832Z,96905.95
2023-03-05T17:58:44.149Z,96904.00
2023-03-05T18:01:22.109Z,96907.80
2023-03-05T18:03:57.261Z,96905.95
2023-03-05T18:06:26.687Z,96905.20
2023-03-05T18:08:56.510Z,96903.27
2023-03-05T18:11:27.657Z,96902.84
2023-03-05T18:14:06.747Z,96908.98
2023-03-05T18:16:36.405Z,96909.64
2023-03-05T18:19:09.906Z,96908.61
2023-03-05T18:21:40.532Z,96910.38
2023-03-05T18:24:10.623Z,96910.77
2023-03-05T18:26:38.774Z,96910.67
2023-03-05T18:29:11.640Z,96915.98
2023-03-05T18:31:40.515Z,96905.98
2023-03-05T18:34:10.463Z,96906.90
2023-03-05T18:36:39.938Z,96912.16
2023-03-05T18:39:10.629Z,96912.77
2023-03-05T18:41:40.342Z,96911.07
2023-03-05T18:44:09.017Z,96910.48
2023-03-05T18:46:37.405Z,96913.90
2023-03-05T18:49:06.136Z,96913.12
2023-03-05T18:51:38.200Z,96912.02
2023-03-05T18:54:10.292Z,96911.69
2023-03-05T18:56:39.802Z,96906.20
2023-03-05T18:59:11.720Z,96910.36
2023-03-05T19:05:52.172Z,96911.15
2023-03-05T19:08:20.936Z,96911.52
2023-03-05T19:10:50.325Z,96913.17
2023-03-05T19:13:43.602Z,96910.95
2023-03-05T19:16:13.372Z,96913.41
2023-03-05T19:18:55.018Z,96915.06
2023-03-05T19:21:33.326Z,96912.64
2023-03-05T19:24:02.444Z,96912.67
2023-03-05T19:26:31.669Z,96909.32
2023-03-05T19:29:00.488Z,96916.52
2023-03-05T19:31:28.632Z,96911.96
2023-03-05T19:33:56.714Z,96919.08
2023-03-05T19:36:24.703Z,96919.27
2023-03-05T19:38:52.759Z,96921.80
2023-03-05T19:41:21.802Z,96924.98
2023-03-05T19:43:50.625Z,96924.77
2023-03-05T19:46:18.929Z,96927.19
2023-03-05T19:48:47.013Z,96930.03
2023-03-05T19:51:29.313Z,96933.56
2023-03-05T19:54:01.167Z,96932.92
2023-03-05T19:56:33.478Z,96928.81
2023-03-05T19:59:02.102Z,96929.31
2023-03-05T20:01:31.675Z,96930.74
2023-03-05T20:04:03.171Z,96925.83
2023-03-05T20:06:39.593Z,96924.85
2023-03-05T20:09:08.585Z,96925.05
2023-03-05T20:11:39.852Z,96924.31
2023-03-05T20:14:08.680Z,96925.45
2023-03-05T20:16:57.624Z,96918.75
2023-03-05T20:19:26.344Z,96914.73
2023-03-05T20:21:54.632Z,96911.91
2023-03-05T20:24:24.961Z,96915.06
2023-03-05T20:26:53.651Z,96914.55
2023-03-05T20:29:21.936Z,96915.05
2023-03-05T20:31:52.889Z,96916.12
2023-03-05T20:34:21.757Z,96914.44
2023-03-05T20:36:53.545Z,96911.85
2023-03-05T20:39:22.281Z,96914.67
2023-03-05T20:41:53.830Z,96908.59
2023-03-05T20:44:25.711Z,96907.31
2023-03-05T20:47:12.734Z,96902.68
2023-03-05T20:49:48.153Z,96903.66
2023-03-05T20:52:17.926Z,96902.22
2023-03-05T20:54:47.808Z,96902.07
2023-03-05T20:57:26.958Z,96896.58
2023-03-05T21:00:05.016Z,96902.35
2023-03-05T21:02:33.333Z,96899.41
2023-03-05T21:05:01.646Z,96898.50
2023-03-05T21:07:33.429Z,96895.98
2023-03-05T21:10:02.463Z,96897.34
2023-03-05T21:12:32.629Z,96901.41
2023-03-05T21:15:01.052Z,96899.55
2023-03-05T21:17:29.260Z,96902.41
2023-03-05T21:19:57.911Z,96904.82
2023-03-05T21:22:29.541Z,96903.27
2023-03-05T21:25:30.009Z,96902.96
2023-03-05T21:28:29.971Z,96900.69
2023-03-05T21:30:57.919Z,96898.83
2023-03-05T21:33:27.310Z,96897.09
2023-03-05T21:35:58.147Z,96896.27
2023-03-05T21:38:30.531Z,96896.42
2023-03-05T21:41:00.058Z,96892.31
2023-03-05T21:55:00.922Z,96880.01
2023-03-05T21:57:50.617Z,96886.64
2023-03-05T22:00:39.859Z,96886.18
